Time;durP1;ratioP1;P1;durP2;ratioP2;P2;SDS_P1;SDS_P2;PMS_P1;PMS_P2;Temp;Humidity;BMP_temperature;BMP_pressure;BME280_temperature;BME280_humidity;BME280_pressure;Samples;Min_cycle;Max_cycle;Signal;HPM_P1;HPM_P2
2021/12/23 11:00:16;;;;;;;21.58;13.40;;;;;;;;;;5089688;28;20055;-23
2021/12/23 11:03:03;;;;;;;21.88;13.63;;;;;;;;;;5117133;28;20346;-22
2021/12/23 11:05:35;;;;;;;20.38;14.77;;;;;;;;;;5097376;28;20110;-23
2021/12/23 11:08:18;;;;;;;22.77;13.43;;;;;;;;;;5117542;28;20111;-23
2021/12/23 11:38:11;;;;;;;18.55;13.13;;;;;;;;;;5101237;28;20045;-28
2021/12/23 11:45:33;;;;;;;20.42;12.98;;;;;;;;;;5101219;27;20059;-27
2021/12/23 11:48:04;;;;;;;19.73;13.65;;;;;;;;;;5100482;28;20031;-24
2021/12/23 11:50:41;;;;;;;16.55;11.98;;;;;;;;;;5105101;28;20034;-21
2021/12/23 11:53:07;;;;;;;22.17;12.10;;;;;;;;;;5117776;27;20115;-22
2021/12/23 11:55:33;;;;;;;18.13;13.32;;;;;;;;;;5122733;27;20142;-22
2021/12/23 11:57:59;;;;;;;21.77;13.57;;;;;;;;;;5118845;27;20106;-22
2021/12/23 12:00:47;;;;;;;21.00;13.02;;;;;;;;;;5120594;27;20058;-23
2021/12/23 12:03:12;;;;;;;19.63;12.43;;;;;;;;;;5104723;28;20031;-22
2021/12/23 12:05:39;;;;;;;15.63;11.73;;;;;;;;;;5123031;27;20449;-24
2021/12/23 12:08:09;;;;;;;17.63;11.90;;;;;;;;;;5107764;27;20027;-24
2021/12/23 12:10:37;;;;;;;17.50;11.82;;;;;;;;;;5095326;28;20028;-25
2021/12/23 12:13:07;;;;;;;17.60;12.80;;;;;;;;;;5103230;28;20050;-26
2021/12/23 12:15:39;;;;;;;18.40;11.93;;;;;;;;;;5097228;28;20824;-26
2021/12/23 12:18:07;;;;;;;17.48;11.45;;;;;;;;;;5110438;28;20525;-31
2021/12/23 12:20:36;;;;;;;19.13;12.20;;;;;;;;;;5102203;28;20137;-24
2021/12/23 12:23:04;;;;;;;16.30;11.95;;;;;;;;;;5091319;28;20027;-26
2021/12/23 12:25:30;;;;;;;17.40;10.88;;;;;;;;;;5097296;28;20040;-24
2021/12/23 12:27:56;;;;;;;19.70;12.52;;;;;;;;;;5110188;28;20037;-23
2021/12/23 12:30:34;;;;;;;17.42;11.45;;;;;;;;;;5104306;28;20019;-24
2021/12/23 12:33:02;;;;;;;14.57;10.98;;;;;;;;;;5082152;28;20172;-24
2021/12/23 12:35:28;;;;;;;17.65;11.90;;;;;;;;;;5106170;28;20042;-23
2021/12/23 12:37:54;;;;;;;17.20;11.18;;;;;;;;;;5091812;28;20473;-24
2021/12/23 12:40:20;;;;;;;15.40;10.75;;;;;;;;;;5103233;28;20020;-22
2021/12/23 12:42:48;;;;;;;17.95;11.18;;;;;;;;;;5110526;28;20099;-26
2021/12/23 12:45:25;;;;;;;16.80;11.50;;;;;;;;;;5105715;27;20084;-29
2021/12/23 12:47:56;;;;;;;14.23;10.75;;;;;;;;;;5095145;28;20059;-23
2021/12/23 12:50:26;;;;;;;15.50;11.32;;;;;;;;;;5095468;28;20035;-25
2021/12/23 12:53:00;;;;;;;15.48;11.52;;;;;;;;;;5095614;28;20490;-26
2021/12/23 12:55:27;;;;;;;16.20;10.80;;;;;;;;;;5084006;28;20051;-24
2021/12/23 12:57:57;;;;;;;15.57;11.57;;;;;;;;;;5109695;28;20093;-24
2021/12/23 13:00:27;;;;;;;13.57;9.70;;;;;;;;;;5105312;28;20508;-23
2021/12/23 13:02:55;;;;;;;13.35;10.35;;;;;;;;;;5109510;28;20031;-23
2021/12/23 13:05:27;;;;;;;17.60;11.65;;;;;;;;;;5102159;28;20028;-24
2021/12/23 13:07:53;;;;;;;12.75;10.18;;;;;;;;;;5078484;28;20098;-23
2021/12/23 13:10:27;;;;;;;15.07;10.43;;;;;;;;;;5082532;28;20345;-23
2021/12/23 13:12:58;;;;;;;17.67;10.18;;;;;;;;;;5081373;28;20032;-25
2021/12/23 13:15:23;;;;;;;;;;;;;;;;;;5073857;28;20050;-24
2021/12/23 13:17:53;;;;;;;16.38;9.45;;;;;;;;;;5100925;28;19923;-25
2021/12/23 13:20:20;;;;;;;15.07;10.38;;;;;;;;;;5068973;28;20025;-24
2021/12/23 13:22:47;;;;;;;18.08;11.10;;;;;;;;;;5097207;28;20126;-22
2021/12/23 13:25:13;;;;;;;18.42;10.88;;;;;;;;;;5107932;28;20031;-22
2021/12/23 13:27:42;;;;;;;15.23;9.50;;;;;;;;;;5100687;28;20068;-23
2021/12/23 13:30:10;;;;;;;15.70;10.75;;;;;;;;;;5088596;28;20052;-21
2021/12/23 13:32:37;;;;;;;15.02;9.90;;;;;;;;;;5101008;28;20030;-23
2021/12/23 13:35:14;;;;;;;14.18;9.60;;;;;;;;;;5087625;28;20032;-22
2021/12/23 13:37:47;;;;;;;14.70;9.73;;;;;;;;;;5100887;28;20488;-23
2021/12/23 13:40:25;;;;;;;13.68;10.45;;;;;;;;;;5109345;28;20385;-22
2021/12/23 13:42:51;;;;;;;13.07;9.70;;;;;;;;;;5104977;28;20503;-22
2021/12/23 13:45:17;;;;;;;16.88;10.23;;;;;;;;;;5089564;28;20506;-23
2021/12/23 13:47:43;;;;;;;12.30;8.48;;;;;;;;;;5093010;28;20114;-24
2021/12/23 13:50:09;;;;;;;13.80;9.77;;;;;;;;;;5105696;28;20102;-22
2021/12/23 13:52:43;;;;;;;13.98;9.57;;;;;;;;;;5102356;28;20392;-22
2021/12/23 13:55:14;;;;;;;11.82;8.93;;;;;;;;;;5103545;28;20048;-22
2021/12/23 13:57:49;;;;;;;12.70;9.85;;;;;;;;;;5105322;27;20110;-23
2021/12/23 14:00:21;;;;;;;15.35;9.15;;;;;;;;;;5093966;28;20381;-22
2021/12/23 14:02:51;;;;;;;14.50;9.68;;;;;;;;;;5094002;28;20023;-24
2021/12/23 14:05:17;;;;;;;13.53;9.83;;;;;;;;;;5095266;28;20030;-25
2021/12/23 14:07:48;;;;;;;14.00;9.32;;;;;;;;;;5084827;28;20028;-23
2021/12/23 14:10:15;;;;;;;13.95;9.27;;;;;;;;;;5080523;28;20027;-23
2021/12/23 14:12:44;;;;;;;12.98;9.45;;;;;;;;;;5083279;28;20092;-24
2021/12/23 14:15:12;;;;;;;13.07;9.43;;;;;;;;;;5079823;28;20089;-23
2021/12/23 14:17:40;;;;;;;15.98;9.73;;;;;;;;;;5081813;28;20065;-25
2021/12/23 14:23:14;;;;;;;12.63;7.82;;;;;;;;;;5090340;28;20085;-22
2021/12/23 14:25:41;;;;;;;13.80;9.35;;;;;;;;;;5094885;28;20028;-23
2021/12/23 14:28:08;;;;;;;12.32;8.85;;;;;;;;;;5085391;28;20039;-22
2021/12/23 14:30:35;;;;;;;14.20;8.88;;;;;;;;;;5083529;28;20027;-22
2021/12/23 14:33:09;;;;;;;15.23;9.32;;;;;;;;;;5081708;28;20068;-23
2021/12/23 14:35:35;;;;;;;11.65;8.02;;;;;;;;;;5079583;28;20025;-22
2021/12/23 14:38:02;;;;;;;11.77;8.52;;;;;;;;;;5077085;28;20393;-23
2021/12/23 14:40:28;;;;;;;13.93;9.43;;;;;;;;;;5099443;28;20478;-23
2021/12/23 14:43:01;;;;;;;13.77;9.45;;;;;;;;;;5099595;28;20119;-23
2021/12/23 14:45:27;;;;;;;13.32;9.63;;;;;;;;;;5093892;28;20024;-25
2021/12/23 14:48:13;;;;;;;12.68;8.13;;;;;;;;;;5108266;28;20474;-23
2021/12/23 14:50:51;;;;;;;14.02;8.82;;;;;;;;;;5095248;28;20081;-25
2021/12/23 14:53:18;;;;;;;12.35;8.45;;;;;;;;;;5108823;28;20036;-22
2021/12/23 14:55:52;;;;;;;14.25;8.85;;;;;;;;;;5094921;28;20134;-22
2021/12/23 14:58:18;;;;;;;15.65;8.55;;;;;;;;;;5107944;28;20118;-23
2021/12/23 15:00:45;;;;;;;12.32;8.48;;;;;;;;;;5094876;28;20135;-22
2021/12/23 15:03:13;;;;;;;15.30;8.63;;;;;;;;;;5107997;28;20068;-23
2021/12/23 15:05:44;;;;;;;17.45;8.75;;;;;;;;;;5095525;28;20441;-23
2021/12/23 15:08:10;;;;;;;;;;;;;;;;;;5068112;28;20033;-24
2021/12/23 15:10:38;;;;;;;21.20;8.13;;;;;;;;;;5092311;28;19954;-23
2021/12/23 15:13:23;;;;;;;11.10;8.20;;;;;;;;;;5089399;28;20077;-23
2021/12/23 15:16:00;;;;;;;11.50;7.85;;;;;;;;;;5091727;28;20125;-22
2021/12/23 15:18:35;;;;;;;15.73;8.95;;;;;;;;;;5107552;28;20043;-21
2021/12/23 15:21:05;;;;;;;14.40;8.57;;;;;;;;;;5096485;28;20043;-21
2021/12/23 15:23:38;;;;;;;11.65;8.48;;;;;;;;;;5068896;28;20474;-23
2021/12/23 15:26:18;;;;;;;15.35;8.25;;;;;;;;;;5086201;28;20434;-23
2021/12/23 15:29:02;;;;;;;15.75;9.05;;;;;;;;;;5104754;28;20024;-24
2021/12/23 15:31:28;;;;;;;16.48;8.60;;;;;;;;;;5098900;28;20062;-21
2021/12/23 15:33:54;;;;;;;15.35;9.20;;;;;;;;;;5087993;28;20755;-20
2021/12/23 15:36:20;;;;;;;11.77;8.27;;;;;;;;;;5090299;28;20134;-20
2021/12/23 15:38:46;;;;;;;14.00;8.13;;;;;;;;;;5089795;28;20024;-19
2021/12/23 15:41:12;;;;;;;13.75;8.75;;;;;;;;;;5090758;28;20048;-19
2021/12/23 15:43:38;;;;;;;15.75;9.55;;;;;;;;;;5104785;28;20383;-20
2021/12/23 15:46:04;;;;;;;12.32;8.32;;;;;;;;;;5106358;28;20059;-20
2021/12/23 15:48:32;;;;;;;15.32;9.38;;;;;;;;;;5102761;28;20031;-21
2021/12/23 15:51:00;;;;;;;13.15;8.88;;;;;;;;;;5106247;28;20070;-20
2021/12/23 15:53:26;;;;;;;14.63;7.35;;;;;;;;;;5101001;28;20020;-21
2021/12/23 15:56:00;;;;;;;14.10;9.38;;;;;;;;;;5091900;28;20404;-21
2021/12/23 15:58:26;;;;;;;14.20;8.55;;;;;;;;;;5101944;28;20028;-21
2021/12/23 16:00:52;;;;;;;17.35;9.05;;;;;;;;;;5092025;28;20327;-21
2021/12/23 16:03:18;;;;;;;16.05;8.60;;;;;;;;;;5100249;28;20140;-20
2021/12/23 16:08:10;;;;;;;18.02;9.65;;;;;;;;;;5088627;28;20115;-20
2021/12/23 16:10:37;;;;;;;13.80;9.00;;;;;;;;;;5078233;28;20024;-21
2021/12/23 16:13:03;;;;;;;13.90;9.25;;;;;;;;;;5090579;28;20636;-22
2021/12/23 16:15:29;;;;;;;16.00;9.40;;;;;;;;;;5083392;28;20122;-20
2021/12/23 16:17:56;;;;;;;16.83;9.43;;;;;;;;;;5086891;28;20036;-20
2021/12/23 16:20:23;;;;;;;17.25;9.65;;;;;;;;;;5080541;28;20035;-21
2021/12/23 16:22:50;;;;;;;19.85;9.27;;;;;;;;;;5087306;28;20076;-21
2021/12/23 16:25:16;;;;;;;17.77;9.50;;;;;;;;;;5083642;28;20059;-20
2021/12/23 16:27:42;;;;;;;16.27;9.80;;;;;;;;;;5088288;28;20103;-20
2021/12/23 16:30:09;;;;;;;16.02;8.95;;;;;;;;;;5080982;28;20091;-21
2021/12/23 16:32:49;;;;;;;16.08;9.18;;;;;;;;;;5087824;28;20124;-21
2021/12/23 16:35:16;;;;;;;27.10;13.13;;;;;;;;;;5096805;28;20047;-21
2021/12/23 16:37:42;;;;;;;42.13;15.55;;;;;;;;;;5092285;28;20024;-20
2021/12/23 16:40:10;;;;;;;32.67;14.77;;;;;;;;;;5099074;28;20190;-20
2021/12/23 16:42:36;;;;;;;32.75;14.48;;;;;;;;;;5091589;28;20016;-20
2021/12/23 16:45:03;;;;;;;37.40;13.98;;;;;;;;;;5097905;28;20028;-21
2021/12/23 16:47:29;;;;;;;32.65;12.02;;;;;;;;;;5108499;28;20024;-28
2021/12/23 16:49:55;;;;;;;28.85;12.63;;;;;;;;;;5098945;28;20028;-29
2021/12/23 16:52:21;;;;;;;26.80;12.35;;;;;;;;;;5092278;28;20477;-29
2021/12/23 16:54:54;;;;;;;25.52;12.75;;;;;;;;;;5101779;28;20116;-30
2021/12/23 16:57:33;;;;;;;26.50;12.48;;;;;;;;;;5081451;28;20328;-30
2021/12/23 17:00:20;;;;;;;27.88;11.68;;;;;;;;;;5095962;28;20144;-31
2021/12/23 17:02:48;;;;;;;32.80;11.45;;;;;;;;;;5107560;28;20016;-32
2021/12/23 17:05:16;;;;;;;23.83;11.35;;;;;;;;;;5103910;28;20065;-34
2021/12/23 17:07:43;;;;;;;28.15;11.82;;;;;;;;;;5095172;28;20086;-30
2021/12/23 17:10:10;;;;;;;26.92;12.98;;;;;;;;;;5085803;28;20127;-33
2021/12/23 17:12:36;;;;;;;24.65;11.30;;;;;;;;;;5073651;28;20516;-32
2021/12/23 17:15:02;;;;;;;23.05;11.45;;;;;;;;;;5076959;28;20020;-33
2021/12/23 17:17:30;;;;;;;21.08;10.85;;;;;;;;;;5076286;28;20102;-34
2021/12/23 17:20:00;;;;;;;24.10;11.35;;;;;;;;;;5076233;28;20024;-32
2021/12/23 17:22:26;;;;;;;30.55;12.25;;;;;;;;;;5073498;28;20031;-32
2021/12/23 17:24:53;;;;;;;20.70;12.45;;;;;;;;;;5076855;28;20123;-29
2021/12/23 17:27:19;;;;;;;28.98;11.52;;;;;;;;;;5099975;28;20512;-28
2021/12/23 17:29:45;;;;;;;40.53;20.52;;;;;;;;;;5097145;28;20024;-29
2021/12/23 17:32:11;;;;;;;65.20;31.25;;;;;;;;;;5080950;28;20024;-34
2021/12/23 17:34:38;;;;;;;62.72;31.63;;;;;;;;;;5084026;28;20016;-31
2021/12/23 17:37:05;;;;;;;63.38;30.70;;;;;;;;;;5078150;28;20096;-30
2021/12/23 17:39:31;;;;;;;52.97;29.85;;;;;;;;;;5081726;28;20070;-30
2021/12/23 17:41:57;;;;;;;54.97;31.13;;;;;;;;;;5079667;28;20190;-28
2021/12/23 17:44:23;;;;;;;56.38;30.45;;;;;;;;;;5089647;28;20038;-33
2021/12/23 17:46:49;;;;;;;63.00;30.02;;;;;;;;;;5088474;28;20039;-32
2021/12/23 17:49:15;;;;;;;58.35;30.13;;;;;;;;;;5077195;28;20035;-30
2021/12/23 17:51:41;;;;;;;53.50;30.30;;;;;;;;;;5088050;28;20110;-30
2021/12/23 17:54:08;;;;;;;57.15;29.40;;;;;;;;;;5078963;28;20052;-29
2021/12/23 17:56:38;;;;;;;57.97;30.23;;;;;;;;;;5089477;28;20079;-29
2021/12/23 17:59:04;;;;;;;53.67;28.52;;;;;;;;;;5078961;28;20107;-30
2021/12/23 18:01:31;;;;;;;54.88;28.77;;;;;;;;;;5077633;28;20036;-32
2021/12/23 18:03:57;;;;;;;50.78;28.35;;;;;;;;;;5108059;28;20114;-31
2021/12/23 18:06:23;;;;;;;53.55;27.48;;;;;;;;;;5098772;28;20055;-29
2021/12/23 18:08:50;;;;;;;51.50;26.40;;;;;;;;;;5105126;28;20516;-29
2021/12/23 18:11:16;;;;;;;47.65;27.02;;;;;;;;;;5101196;28;20019;-30
2021/12/23 18:13:42;;;;;;;51.63;26.15;;;;;;;;;;5108487;28;20454;-28
2021/12/23 18:16:08;;;;;;;49.63;26.90;;;;;;;;;;5103580;28;20028;-34
2021/12/23 18:18:35;;;;;;;55.60;27.17;;;;;;;;;;5100830;28;20053;-31
2021/12/23 18:21:01;;;;;;;52.70;25.65;;;;;;;;;;5105951;27;20075;-32
2021/12/23 18:23:28;;;;;;;44.78;25.42;;;;;;;;;;5098030;28;20038;-33
2021/12/23 18:25:54;;;;;;;45.50;25.60;;;;;;;;;;5089191;28;20035;-29
2021/12/23 18:28:21;;;;;;;39.50;23.88;;;;;;;;;;5099175;28;20111;-33
2021/12/23 18:30:47;;;;;;;47.35;24.17;;;;;;;;;;5088562;28;20335;-30
2021/12/23 18:33:14;;;;;;;47.38;25.92;;;;;;;;;;5096469;28;20126;-31
2021/12/23 18:35:43;;;;;;;47.63;25.90;;;;;;;;;;5108294;28;20032;-30
2021/12/23 18:38:14;;;;;;;41.30;24.38;;;;;;;;;;5101042;28;20028;-32
2021/12/23 18:40:46;;;;;;;43.33;23.30;;;;;;;;;;5086858;28;20485;-33
2021/12/23 18:43:13;;;;;;;42.72;23.45;;;;;;;;;;5094280;28;20044;-33
2021/12/23 18:45:39;;;;;;;45.40;26.10;;;;;;;;;;5108093;28;20028;-29
2021/12/23 18:48:07;;;;;;;42.47;23.90;;;;;;;;;;5106419;28;20834;-32
2021/12/23 18:50:33;;;;;;;38.75;20.88;;;;;;;;;;5068457;28;20086;-30
2021/12/23 18:53:00;;;;;;;42.95;24.27;;;;;;;;;;5085626;28;20124;-32
2021/12/23 18:55:26;;;;;;;42.03;22.95;;;;;;;;;;5105507;28;20078;-30
2021/12/23 18:57:53;;;;;;;42.08;21.83;;;;;;;;;;5092508;28;20024;-30
2021/12/23 19:00:28;;;;;;;36.92;21.25;;;;;;;;;;5087875;28;20107;-31
2021/12/23 19:05:29;;;;;;;38.65;22.13;;;;;;;;;;5096382;28;20579;-30
2021/12/23 19:07:56;;;;;;;40.10;21.40;;;;;;;;;;5086713;28;20020;-34
2021/12/23 19:10:23;;;;;;;40.22;21.60;;;;;;;;;;5099828;28;20028;-35
2021/12/23 19:12:49;;;;;;;38.38;22.00;;;;;;;;;;5094667;28;20023;-33
2021/12/23 19:15:15;;;;;;;38.90;21.23;;;;;;;;;;5093295;28;20035;-33
2021/12/23 19:17:41;;;;;;;38.63;21.38;;;;;;;;;;5108250;28;20120;-35
2021/12/23 19:20:08;;;;;;;40.08;22.42;;;;;;;;;;5100992;28;20102;-32
2021/12/23 19:22:41;;;;;;;37.17;20.55;;;;;;;;;;5110342;28;20084;-31
2021/12/23 19:25:08;;;;;;;33.35;20.05;;;;;;;;;;5102527;28;20032;-31
2021/12/23 19:27:35;;;;;;;35.03;20.77;;;;;;;;;;5091618;28;20163;-30
2021/12/23 19:30:01;;;;;;;43.25;21.95;;;;;;;;;;5086900;28;20497;-36
2021/12/23 19:32:27;;;;;;;38.92;21.70;;;;;;;;;;5111931;28;20054;-36
2021/12/23 19:34:54;;;;;;;35.40;19.42;;;;;;;;;;5101202;27;20060;-37
2021/12/23 19:37:20;;;;;;;38.88;19.95;;;;;;;;;;5090741;28;20028;-38
2021/12/23 19:39:46;;;;;;;32.53;19.42;;;;;;;;;;5095336;28;20020;-38
2021/12/23 19:42:12;;;;;;;35.95;17.98;;;;;;;;;;5080358;28;20119;-38
2021/12/23 19:44:38;;;;;;;35.35;20.15;;;;;;;;;;5090535;28;20028;-34
2021/12/23 19:47:05;;;;;;;34.78;19.23;;;;;;;;;;5091059;28;20024;-39
2021/12/23 19:49:31;;;;;;;31.10;20.25;;;;;;;;;;5078019;28;20107;-35
2021/12/23 19:51:57;;;;;;;31.55;20.60;;;;;;;;;;5094103;28;20051;-35
2021/12/23 19:54:29;;;;;;;30.27;18.65;;;;;;;;;;5083939;28;20169;-35
2021/12/23 19:56:59;;;;;;;29.45;19.23;;;;;;;;;;5086116;28;20063;-42
2021/12/23 19:59:26;;;;;;;30.08;18.85;;;;;;;;;;5080632;28;20078;-34
2021/12/23 20:01:54;;;;;;;28.10;19.05;;;;;;;;;;5093416;28;20442;-39
2021/12/23 20:04:20;;;;;;;28.33;17.27;;;;;;;;;;5084053;28;20119;-38
2021/12/23 20:06:46;;;;;;;26.42;17.40;;;;;;;;;;5108783;28;20164;-40
2021/12/23 20:09:12;;;;;;;29.02;17.13;;;;;;;;;;5111031;28;20024;-37
2021/12/23 20:11:38;;;;;;;26.90;17.85;;;;;;;;;;5101841;28;20048;-38
2021/12/23 20:14:05;;;;;;;28.15;17.25;;;;;;;;;;5090229;28;20452;-39
2021/12/23 20:16:31;;;;;;;29.48;16.90;;;;;;;;;;5103430;28;20401;-40
2021/12/23 20:19:02;;;;;;;25.98;15.38;;;;;;;;;;5088874;28;20120;-39
2021/12/23 20:21:28;;;;;;;25.25;16.88;;;;;;;;;;5094261;28;20048;-38
2021/12/23 20:23:54;;;;;;;27.52;16.20;;;;;;;;;;5110605;28;20053;-36
2021/12/23 20:26:20;;;;;;;26.17;16.90;;;;;;;;;;5098374;28;20139;-35
2021/12/23 20:28:46;;;;;;;23.70;14.85;;;;;;;;;;5107098;28;20076;-39
2021/12/23 20:31:12;;;;;;;24.08;15.55;;;;;;;;;;5102123;28;20110;-40
2021/12/23 20:33:38;;;;;;;29.48;16.48;;;;;;;;;;5095761;28;20426;-38
2021/12/23 20:36:05;;;;;;;25.92;15.95;;;;;;;;;;5091815;28;20078;-37
2021/12/23 20:38:31;;;;;;;22.90;14.35;;;;;;;;;;5103023;28;20093;-38
2021/12/23 20:40:57;;;;;;;25.55;14.18;;;;;;;;;;5107729;28;20457;-33
2021/12/23 20:43:22;;;;;;;25.15;15.43;;;;;;;;;;5100116;28;20054;-38
2021/12/23 20:45:49;;;;;;;25.85;16.17;;;;;;;;;;5090094;28;20102;-36
2021/12/23 20:48:15;;;;;;;23.02;14.75;;;;;;;;;;5099823;28;20132;-37
2021/12/23 20:50:42;;;;;;;22.77;14.68;;;;;;;;;;5077185;28;20047;-41
2021/12/23 20:53:10;;;;;;;22.10;14.68;;;;;;;;;;5094210;28;20084;-37
2021/12/23 20:55:43;;;;;;;24.13;14.30;;;;;;;;;;5072130;28;20067;-36
2021/12/23 20:58:10;;;;;;;24.63;14.32;;;;;;;;;;5104663;28;20102;-38
2021/12/23 21:00:40;;;;;;;23.23;14.95;;;;;;;;;;5082593;28;20036;-35
2021/12/23 21:03:07;;;;;;;23.77;13.90;;;;;;;;;;5089904;28;20103;-39
2021/12/23 21:05:33;;;;;;;21.23;13.60;;;;;;;;;;5083570;28;20131;-38
2021/12/23 21:07:59;;;;;;;20.58;13.55;;;;;;;;;;5081610;28;20624;-36
2021/12/23 21:10:26;;;;;;;21.85;14.38;;;;;;;;;;5085982;28;20036;-40
2021/12/23 21:12:58;;;;;;;20.25;13.68;;;;;;;;;;5092496;28;20102;-36
2021/12/23 21:15:30;;;;;;;25.83;14.32;;;;;;;;;;5087021;28;20040;-38
2021/12/23 21:17:56;;;;;;;27.80;13.35;;;;;;;;;;5092182;28;20042;-39
2021/12/23 21:20:22;;;;;;;19.38;13.20;;;;;;;;;;5079710;28;20097;-41
2021/12/23 21:22:49;;;;;;;27.05;13.70;;;;;;;;;;5085360;28;20027;-36
2021/12/23 21:25:15;;;;;;;20.77;12.52;;;;;;;;;;5096067;28;20031;-38
2021/12/23 21:27:42;;;;;;;25.27;12.68;;;;;;;;;;5094228;28;20024;-36
2021/12/23 21:30:09;;;;;;;18.70;12.18;;;;;;;;;;5100082;28;20027;-36
2021/12/23 21:32:35;;;;;;;20.48;11.68;;;;;;;;;;5108115;28;20115;-40
2021/12/23 21:35:01;;;;;;;20.85;13.30;;;;;;;;;;5100929;28;20062;-39
2021/12/23 21:37:27;;;;;;;19.90;11.73;;;;;;;;;;5090355;28;20123;-38
2021/12/23 21:39:57;;;;;;;17.85;10.75;;;;;;;;;;5099969;28;20093;-33
2021/12/23 21:42:23;;;;;;;;;;;;;;;;;;5090197;28;20036;-32
2021/12/23 21:44:49;;;;;;;19.95;11.55;;;;;;;;;;5096731;28;19954;-35
2021/12/23 21:47:15;;;;;;;18.33;11.25;;;;;;;;;;5109056;28;20453;-36
2021/12/23 21:49:46;;;;;;;19.65;12.23;;;;;;;;;;5102641;28;20039;-38
2021/12/23 21:52:12;;;;;;;16.35;11.02;;;;;;;;;;5078088;28;20090;-39
2021/12/23 21:54:45;;;;;;;18.73;11.82;;;;;;;;;;5100580;28;20019;-41
2021/12/23 21:57:11;;;;;;;18.85;11.73;;;;;;;;;;5078923;28;20039;-40
2021/12/23 21:59:37;;;;;;;17.98;10.75;;;;;;;;;;5085023;28;20169;-38
2021/12/23 22:02:04;;;;;;;20.55;11.63;;;;;;;;;;5079155;28;20370;-39
2021/12/23 22:04:30;;;;;;;17.73;11.07;;;;;;;;;;5087302;28;20107;-38
2021/12/23 22:06:56;;;;;;;19.55;12.10;;;;;;;;;;5084019;28;20131;-36
2021/12/23 22:09:22;;;;;;;18.90;10.90;;;;;;;;;;5086979;28;20131;-38
2021/12/23 22:11:49;;;;;;;19.48;11.68;;;;;;;;;;5078421;28;20024;-38
2021/12/23 22:14:15;;;;;;;19.77;11.02;;;;;;;;;;5084647;28;20115;-38
2021/12/23 22:16:42;;;;;;;20.58;12.13;;;;;;;;;;5079661;28;20048;-36
2021/12/23 22:19:08;;;;;;;18.33;11.63;;;;;;;;;;5082939;28;20028;-39
2021/12/23 22:21:36;;;;;;;16.40;11.57;;;;;;;;;;5082520;28;20051;-38
2021/12/23 22:24:03;;;;;;;22.67;11.88;;;;;;;;;;5080044;28;20020;-35
2021/12/23 22:26:29;;;;;;;16.60;10.82;;;;;;;;;;5085520;28;20052;-34
2021/12/23 22:28:55;;;;;;;18.20;11.90;;;;;;;;;;5078303;28;20455;-36
2021/12/23 22:31:21;;;;;;;21.73;12.68;;;;;;;;;;5087013;28;20165;-33
2021/12/23 22:33:47;;;;;;;19.08;11.82;;;;;;;;;;5076462;28;20038;-39
2021/12/23 22:36:13;;;;;;;17.02;11.35;;;;;;;;;;5085675;28;20032;-39
2021/12/23 22:38:39;;;;;;;17.27;11.20;;;;;;;;;;5108266;28;20051;-37
2021/12/23 22:41:05;;;;;;;18.52;12.05;;;;;;;;;;5096462;28;20405;-38
2021/12/23 22:43:31;;;;;;;19.05;12.63;;;;;;;;;;5108254;28;20115;-34
2021/12/23 22:45:57;;;;;;;16.98;11.85;;;;;;;;;;5098805;28;20028;-37
2021/12/23 22:48:23;;;;;;;19.25;11.93;;;;;;;;;;5105177;28;20158;-37
2021/12/23 22:50:49;;;;;;;18.58;12.45;;;;;;;;;;5103246;28;20020;-36
2021/12/23 22:53:16;;;;;;;16.65;11.55;;;;;;;;;;5093721;28;20107;-37
2021/12/23 22:55:42;;;;;;;18.33;12.07;;;;;;;;;;5083603;28;20064;-39
2021/12/23 22:58:09;;;;;;;18.10;11.63;;;;;;;;;;5100237;28;20031;-37
2021/12/23 23:00:38;;;;;;;16.33;11.32;;;;;;;;;;5098716;28;20094;-33
2021/12/23 23:03:09;;;;;;;18.83;11.55;;;;;;;;;;5097619;28;20035;-32
2021/12/23 23:05:35;;;;;;;16.88;12.20;;;;;;;;;;5087522;28;20024;-35
2021/12/23 23:08:01;;;;;;;18.95;11.40;;;;;;;;;;5099044;28;20020;-33
2021/12/23 23:10:35;;;;;;;17.48;10.98;;;;;;;;;;5089455;28;20036;-33
2021/12/23 23:13:04;;;;;;;18.23;11.65;;;;;;;;;;5099155;28;20036;-32
2021/12/23 23:16:38;;;;;;;21.23;12.35;;;;;;;;;;5088534;28;20551;-33
2021/12/23 23:18:19;;;;;;;17.45;11.57;;;;;;;;;;5093330;28;20079;-37
2021/12/23 23:20:45;;;;;;;17.75;11.23;;;;;;;;;;5085377;28;20113;-35
2021/12/23 23:23:11;;;;;;;20.05;11.27;;;;;;;;;;5088071;28;20095;-37
2021/12/23 23:25:41;;;;;;;17.27;11.10;;;;;;;;;;5075429;28;20586;-33
2021/12/23 23:35:15;;;;;;;17.05;11.32;;;;;;;;;;5082215;28;20060;-35
2021/12/23 23:36:31;;;;;;;15.85;10.30;;;;;;;;;;5089143;28;20082;-38
2021/12/23 23:39:08;;;;;;;15.75;11.18;;;;;;;;;;5098001;28;20024;-36
2021/12/23 23:41:34;;;;;;;14.85;9.40;;;;;;;;;;5089091;28;20024;-36
2021/12/23 23:44:01;;;;;;;16.27;10.90;;;;;;;;;;5098731;28;20043;-39
2021/12/23 23:46:32;;;;;;;17.60;11.32;;;;;;;;;;5087299;28;20119;-36
2021/12/23 23:48:58;;;;;;;16.17;11.30;;;;;;;;;;5094809;28;20024;-34
2021/12/23 23:51:24;;;;;;;14.73;10.00;;;;;;;;;;5087885;28;20039;-36
2021/12/23 23:53:50;;;;;;;15.75;10.35;;;;;;;;;;5090394;28;20035;-33
2021/12/23 23:56:18;;;;;;;15.40;9.63;;;;;;;;;;5097404;28;20146;-34
2021/12/23 23:58:45;;;;;;;12.98;9.50;;;;;;;;;;5078344;28;20211;-34
